createdAt,value
2018-07-13T00:01:58.440Z,91.56
2018-07-13T00:05:02.681Z,91.68
2018-07-13T00:08:06.961Z,92.34
2018-07-13T00:11:11.239Z,91.96
2018-07-13T00:14:19.564Z,91.89
2018-07-13T00:17:23.834Z,92.01
2018-07-13T00:20:28.057Z,91.46
2018-07-13T00:23:32.296Z,92.21
2018-07-13T00:26:36.940Z,92.28
2018-07-13T00:29:41.198Z,92.09
2018-07-13T00:32:45.472Z,91.97
2018-07-13T00:35:49.713Z,92.26
2018-07-13T00:38:53.970Z,91.50
2018-07-13T00:41:57.981Z,91.67
2018-07-13T00:45:02.276Z,91.61
2018-07-13T00:48:06.512Z,92.27
2018-07-13T00:51:10.817Z,92.97
2018-07-13T00:54:15.028Z,92.52
2018-07-13T00:57:19.301Z,92.88
2018-07-13T01:00:30.827Z,93.19
2018-07-13T01:03:35.077Z,92.89
2018-07-13T01:06:39.352Z,92.64
2018-07-13T01:09:43.589Z,92.73
2018-07-13T01:12:47.942Z,93.22
2018-07-13T01:15:52.183Z,92.95
2018-07-13T01:18:56.486Z,92.83
2018-07-13T01:22:00.753Z,93.50
2018-07-13T01:25:05.021Z,93.61
2018-07-13T01:28:09.088Z,93.25
2018-07-13T01:31:13.286Z,92.68
2018-07-13T01:34:17.496Z,92.66
2018-07-13T01:37:21.741Z,92.34
2018-07-13T01:40:25.997Z,93.12
2018-07-13T01:43:30.298Z,92.40
2018-07-13T01:46:34.568Z,92.64
2018-07-13T01:49:38.793Z,92.23
2018-07-13T01:52:43.098Z,92.66
2018-07-13T01:55:47.343Z,92.52
2018-07-13T01:58:51.836Z,92.40
2018-07-13T02:01:56.088Z,92.39
2018-07-13T02:05:00.332Z,91.70
2018-07-13T02:08:04.625Z,91.87
2018-07-13T02:11:08.872Z,92.32
2018-07-13T02:14:13.154Z,91.95
2018-07-13T02:17:17.463Z,92.53
2018-07-13T02:20:21.754Z,92.34
2018-07-13T02:23:26.068Z,91.86
2018-07-13T02:26:30.385Z,91.99
2018-07-13T02:29:34.644Z,91.91
2018-07-13T02:32:38.881Z,92.13
2018-07-13T02:35:43.117Z,92.33
2018-07-13T02:38:47.370Z,92.25
2018-07-13T02:41:51.612Z,92.38
2018-07-13T02:44:55.847Z,92.55
2018-07-13T02:48:00.142Z,92.59
2018-07-13T02:51:04.411Z,92.16
2018-07-13T02:54:08.660Z,91.87
2018-07-13T02:57:12.893Z,92.26
2018-07-13T03:00:17.169Z,93.10
2018-07-13T03:03:21.425Z,92.55
2018-07-13T03:06:25.707Z,92.91
2018-07-13T03:09:29.940Z,92.48
2018-07-13T03:12:34.181Z,92.57
2018-07-13T03:15:38.518Z,92.35
2018-07-13T03:18:42.758Z,92.95
2018-07-13T03:21:46.977Z,92.89
2018-07-13T03:24:51.235Z,92.58
2018-07-13T03:27:55.481Z,93.05
2018-07-13T03:30:59.709Z,92.83
2018-07-13T03:34:03.978Z,92.70
2018-07-13T03:37:08.237Z,93.11
2018-07-13T03:40:12.485Z,92.97
2018-07-13T03:43:16.688Z,93.68
2018-07-13T03:46:20.944Z,93.15
2018-07-13T03:49:25.172Z,93.36
2018-07-13T03:52:29.468Z,94.12
2018-07-13T03:55:33.728Z,93.97
2018-07-13T03:58:37.969Z,93.62
2018-07-13T04:01:42.186Z,92.69
2018-07-13T04:04:46.488Z,93.07
2018-07-13T04:07:50.938Z,92.32
2018-07-13T04:10:55.194Z,92.92
2018-07-13T04:13:59.438Z,92.54
2018-07-13T04:17:03.717Z,92.85
2018-07-13T04:20:07.979Z,92.01
2018-07-13T04:23:12.246Z,91.55
2018-07-13T04:26:16.487Z,91.63
2018-07-13T04:29:21.203Z,92.22
2018-07-13T04:32:25.444Z,91.15
2018-07-13T04:35:29.683Z,91.94
2018-07-13T04:38:33.931Z,91.96
2018-07-13T04:41:38.224Z,91.04
2018-07-13T04:44:42.453Z,90.73
2018-07-13T04:47:46.490Z,90.26
2018-07-13T04:50:50.748Z,90.29
2018-07-13T04:53:55.091Z,89.93
2018-07-13T04:56:59.365Z,89.51
2018-07-13T05:00:03.634Z,89.39
2018-07-13T05:03:07.884Z,88.73
2018-07-13T05:06:12.118Z,88.66
2018-07-13T05:09:16.486Z,89.36
2018-07-13T05:12:20.705Z,89.46
2018-07-13T05:15:24.927Z,89.22
2018-07-13T05:18:29.217Z,89.00
2018-07-13T05:21:33.501Z,87.85
2018-07-13T05:24:37.733Z,87.73
2018-07-13T05:27:42.135Z,87.82
2018-07-13T05:30:46.540Z,87.60
2018-07-13T05:33:50.857Z,86.97
2018-07-13T05:36:55.085Z,85.62
2018-07-13T05:39:59.341Z,85.37
2018-07-13T05:43:03.661Z,85.51
2018-07-13T05:46:07.933Z,85.92
2018-07-13T05:49:12.213Z,85.09
2018-07-13T05:52:16.455Z,84.03
2018-07-13T05:55:20.765Z,84.86
2018-07-13T05:58:25.063Z,83.98
2018-07-13T06:01:29.304Z,84.19
2018-07-13T06:04:33.541Z,84.34
2018-07-13T06:07:37.893Z,81.87
2018-07-13T06:10:42.150Z,82.10
2018-07-13T06:13:46.419Z,81.50
2018-07-13T06:16:50.652Z,82.41
2018-07-13T06:19:54.895Z,81.16
2018-07-13T06:22:59.123Z,81.08
2018-07-13T06:26:03.381Z,81.05
2018-07-13T06:29:07.665Z,80.68
2018-07-13T06:32:11.880Z,80.44
2018-07-13T06:35:16.115Z,78.86
2018-07-13T06:38:20.343Z,79.23
2018-07-13T06:41:24.569Z,77.94
2018-07-13T06:44:28.837Z,77.05
2018-07-13T06:47:33.061Z,77.82
2018-07-13T06:50:37.856Z,76.17
2018-07-13T06:53:42.033Z,75.23
2018-07-13T06:56:46.354Z,74.92
2018-07-13T06:59:50.517Z,74.19
2018-07-13T07:02:54.779Z,74.31
2018-07-13T07:06:03.245Z,74.10
2018-07-13T07:09:07.547Z,71.32
2018-07-13T07:12:54.521Z,72.15
2018-07-13T07:15:59.225Z,71.83
2018-07-13T07:19:03.449Z,71.62
2018-07-13T07:22:07.857Z,72.37
2018-07-13T07:25:12.074Z,70.76
2018-07-13T07:28:16.344Z,70.33
2018-07-13T07:31:20.603Z,67.91
2018-07-13T07:34:24.854Z,66.63
2018-07-13T07:37:29.082Z,69.01
2018-07-13T07:40:33.402Z,68.27
2018-07-13T07:43:37.660Z,67.30
2018-07-13T07:46:41.909Z,66.77
2018-07-13T07:49:46.178Z,66.07
2018-07-13T07:52:50.428Z,65.63
2018-07-13T07:55:54.663Z,64.83
2018-07-13T07:58:58.896Z,65.94
2018-07-13T08:02:03.131Z,64.58
2018-07-13T08:05:07.440Z,63.67
2018-07-13T08:08:11.708Z,62.80
2018-07-13T08:11:16.314Z,63.75
2018-07-13T08:14:20.712Z,63.57
2018-07-13T08:17:25.093Z,63.56
2018-07-13T08:20:35.149Z,63.81
2018-07-13T08:23:39.891Z,62.46
2018-07-13T08:26:44.695Z,61.41
2018-07-13T08:29:49.541Z,59.74
2018-07-13T08:32:53.802Z,60.01
2018-07-13T08:35:58.044Z,59.60
2018-07-13T08:39:02.300Z,60.47
2018-07-13T08:42:06.513Z,60.37
2018-07-13T08:45:10.758Z,59.38
2018-07-13T08:48:14.988Z,58.08
2018-07-13T08:51:19.298Z,58.69
2018-07-13T08:54:23.498Z,58.45
2018-07-13T08:57:27.716Z,57.91
2018-07-13T09:00:32.017Z,58.16
2018-07-13T09:03:36.256Z,56.32
2018-07-13T09:06:40.521Z,56.76
2018-07-13T09:09:44.768Z,55.61
2018-07-13T09:12:49.038Z,55.26
2018-07-13T09:15:53.241Z,54.36
2018-07-13T09:18:57.681Z,54.10
2018-07-13T09:22:02.055Z,55.25
2018-07-13T09:25:06.617Z,55.47
2018-07-13T09:28:10.865Z,54.54
2018-07-13T09:31:15.105Z,52.93
2018-07-13T09:34:19.317Z,53.71
2018-07-13T09:37:23.581Z,52.56
2018-07-13T09:40:27.820Z,52.37
2018-07-13T09:43:32.068Z,52.42
2018-07-13T09:46:36.375Z,52.97
2018-07-13T09:49:40.603Z,52.54
2018-07-13T09:52:44.837Z,51.70
2018-07-13T09:55:49.068Z,52.63
2018-07-13T09:58:53.330Z,53.14
2018-07-13T10:01:57.580Z,53.58
2018-07-13T10:05:01.887Z,53.80
2018-07-13T10:08:06.114Z,53.64
2018-07-13T10:11:10.369Z,52.63
2018-07-13T10:14:14.576Z,53.55
2018-07-13T10:17:18.805Z,53.84
2018-07-13T10:20:23.044Z,53.63
2018-07-13T10:23:27.774Z,53.15
2018-07-13T10:26:36.234Z,51.51
2018-07-13T10:29:47.181Z,52.44
2018-07-13T10:32:51.490Z,51.94
2018-07-13T10:35:55.776Z,53.70
2018-07-13T10:39:00.066Z,52.69
2018-07-13T10:42:04.316Z,53.52
2018-07-13T10:45:08.598Z,52.62
2018-07-13T10:48:12.846Z,53.21
2018-07-13T10:51:16.854Z,53.75
2018-07-13T10:54:21.425Z,51.98
2018-07-13T10:57:25.629Z,52.86
2018-07-13T11:00:29.844Z,52.80
2018-07-13T11:03:34.056Z,52.99
2018-07-13T11:06:38.276Z,53.70
2018-07-13T11:09:42.476Z,52.14
2018-07-13T11:12:46.683Z,52.70
2018-07-13T11:15:50.935Z,53.34
2018-07-13T11:18:55.569Z,52.40
2018-07-13T11:21:59.809Z,53.73
2018-07-13T11:25:04.037Z,53.84
2018-07-13T11:28:08.260Z,52.85
2018-07-13T11:31:12.460Z,53.31
2018-07-13T11:34:16.686Z,52.77
2018-07-13T11:37:21.045Z,53.43
2018-07-13T11:40:25.245Z,54.99
2018-07-13T11:43:29.502Z,53.41
2018-07-13T11:46:33.701Z,54.72
2018-07-13T11:49:37.926Z,53.63
2018-07-13T11:52:42.166Z,53.83
2018-07-13T11:55:46.388Z,54.92
2018-07-13T11:58:50.596Z,53.29
2018-07-13T12:01:54.846Z,53.97
2018-07-13T12:04:59.040Z,54.30
2018-07-13T12:08:03.265Z,55.75
2018-07-13T12:11:07.477Z,55.02
2018-07-13T12:14:11.757Z,54.04
2018-07-13T12:17:16.061Z,56.15
2018-07-13T12:20:20.275Z,56.24
2018-07-13T12:23:24.533Z,56.93
2018-07-13T12:26:28.775Z,57.21
2018-07-13T12:29:32.981Z,56.07
2018-07-13T12:32:37.237Z,57.09
2018-07-13T12:35:41.485Z,55.82
2018-07-13T12:38:45.712Z,56.69
2018-07-13T12:41:50.105Z,56.26
2018-07-13T12:44:54.363Z,56.44
2018-07-13T12:47:58.592Z,56.59
2018-07-13T12:51:02.800Z,56.55
2018-07-13T12:54:07.093Z,57.41
2018-07-13T12:57:11.280Z,54.76
2018-07-13T13:00:15.469Z,55.91
2018-07-13T13:03:19.706Z,55.60
2018-07-13T13:06:23.958Z,56.91
2018-07-13T13:09:28.201Z,56.25
2018-07-13T13:12:32.415Z,54.21
2018-07-13T13:15:36.405Z,55.05
2018-07-13T13:18:40.628Z,56.40
2018-07-13T13:21:44.938Z,55.75
2018-07-13T13:24:49.169Z,57.34
2018-07-13T13:27:54.272Z,56.60
2018-07-13T13:30:58.477Z,55.97
2018-07-13T13:34:02.693Z,56.90
2018-07-13T13:37:06.908Z,57.47
2018-07-13T13:40:11.130Z,55.43
2018-07-13T13:43:15.366Z,55.54
2018-07-13T13:46:19.593Z,54.66
2018-07-13T13:49:23.850Z,56.26
2018-07-13T13:52:28.041Z,56.48
2018-07-13T13:55:32.306Z,56.55
2018-07-13T13:58:36.581Z,57.39
2018-07-13T14:01:40.777Z,55.98
2018-07-13T14:04:45.014Z,55.30
2018-07-13T14:07:49.330Z,54.80
2018-07-13T14:10:53.717Z,56.31
2018-07-13T14:13:57.999Z,55.67
2018-07-13T14:17:02.230Z,55.69
2018-07-13T14:20:06.460Z,55.28
2018-07-13T14:23:10.698Z,55.68
2018-07-13T14:26:14.911Z,55.73
2018-07-13T14:29:19.113Z,56.29
2018-07-13T14:32:23.301Z,55.63
2018-07-13T14:35:27.525Z,55.75
2018-07-13T14:38:31.770Z,54.98
2018-07-13T14:41:36.040Z,54.23
2018-07-13T14:44:40.233Z,54.41
2018-07-13T14:47:44.439Z,54.98
2018-07-13T14:50:48.678Z,53.32
2018-07-13T14:53:52.924Z,52.03
2018-07-13T14:56:57.137Z,52.79
2018-07-13T15:00:01.120Z,54.09
2018-07-13T15:03:05.349Z,53.96
2018-07-13T15:06:09.641Z,52.03
2018-07-13T15:09:13.920Z,52.30
2018-07-13T15:12:18.121Z,51.51
2018-07-13T15:15:22.341Z,51.84
2018-07-13T15:18:26.550Z,52.00
2018-07-13T15:21:30.809Z,51.09
2018-07-13T15:24:35.035Z,52.09
2018-07-13T15:27:39.274Z,51.74
2018-07-13T15:30:43.511Z,52.95
2018-07-13T15:33:47.769Z,52.35
2018-07-13T15:36:52.013Z,53.01
2018-07-13T15:39:56.297Z,52.67
2018-07-13T15:43:00.614Z,52.71
2018-07-13T15:46:04.894Z,53.40
2018-07-13T15:49:09.094Z,54.16
2018-07-13T15:52:13.713Z,54.80
2018-07-13T15:55:17.925Z,54.65
2018-07-13T15:58:22.205Z,54.13
2018-07-13T16:01:26.423Z,55.04
2018-07-13T16:04:30.714Z,55.96
2018-07-13T16:07:35.813Z,56.44
2018-07-13T16:10:40.088Z,57.22
2018-07-13T16:13:44.325Z,58.14
2018-07-13T16:16:48.570Z,57.31
2018-07-13T16:19:52.793Z,57.71
2018-07-13T16:22:57.066Z,58.10
2018-07-13T16:26:01.241Z,58.55
2018-07-13T16:29:05.481Z,60.21
2018-07-13T16:32:09.709Z,60.10
2018-07-13T16:35:13.937Z,61.50
2018-07-13T16:38:18.156Z,61.80
2018-07-13T16:41:22.421Z,61.62
2018-07-13T16:44:26.636Z,62.19
2018-07-13T16:47:30.873Z,63.02
2018-07-13T16:50:35.139Z,64.49
2018-07-13T16:53:39.326Z,63.94
2018-07-13T16:56:43.670Z,63.70
2018-07-13T16:59:47.896Z,64.17
2018-07-13T17:02:51.882Z,65.30
2018-07-13T17:05:56.101Z,65.40
2018-07-13T17:09:00.413Z,66.00
2018-07-13T17:12:04.541Z,66.21
2018-07-13T17:15:08.848Z,66.06
2018-07-13T17:18:13.085Z,66.17
2018-07-13T17:21:17.311Z,66.54
2018-07-13T17:24:21.506Z,66.34
2018-07-13T17:27:25.731Z,66.50
2018-07-13T17:30:29.952Z,67.12
2018-07-13T17:33:35.197Z,68.07
2018-07-13T17:36:39.449Z,68.29
2018-07-13T17:39:43.656Z,68.25
2018-07-13T17:42:47.976Z,68.27
2018-07-13T17:45:52.093Z,68.01
2018-07-13T17:48:56.302Z,68.45
2018-07-13T17:52:00.529Z,68.27
2018-07-13T17:55:04.756Z,68.24
2018-07-13T17:58:09.001Z,67.77
2018-07-13T18:01:13.204Z,68.63
2018-07-13T18:04:17.421Z,69.67
2018-07-13T18:07:21.614Z,69.07
2018-07-13T18:10:26.848Z,69.15
2018-07-13T18:13:31.074Z,68.95
2018-07-13T18:16:35.270Z,68.72
2018-07-13T18:19:39.460Z,68.58
2018-07-13T18:22:43.677Z,69.88
2018-07-13T18:25:47.868Z,69.54
2018-07-13T18:28:52.109Z,69.39
2018-07-13T18:31:56.350Z,68.14
2018-07-13T18:35:00.561Z,68.29
2018-07-13T18:38:04.787Z,68.23
2018-07-13T18:41:09.017Z,67.98
2018-07-13T18:44:13.267Z,68.94
2018-07-13T18:47:17.431Z,68.65
2018-07-13T18:50:21.628Z,69.76
2018-07-13T18:53:25.852Z,70.23
2018-07-13T18:56:30.057Z,69.55
2018-07-13T18:59:34.261Z,70.32
2018-07-13T19:02:38.478Z,70.82
2018-07-13T19:05:42.714Z,70.96
2018-07-13T19:08:46.901Z,71.88
2018-07-13T19:11:51.138Z,71.91
2018-07-13T19:14:55.349Z,72.88
2018-07-13T19:17:59.532Z,73.30
2018-07-13T19:21:03.776Z,72.91
2018-07-13T19:24:07.997Z,73.09
2018-07-13T19:27:12.194Z,73.74
2018-07-13T19:30:16.445Z,73.94
2018-07-13T19:33:20.680Z,73.49
2018-07-13T19:36:24.941Z,73.40
2018-07-13T19:39:29.198Z,73.76
2018-07-13T19:42:33.394Z,74.14
2018-07-13T19:45:37.617Z,74.00
2018-07-13T19:48:42.814Z,74.82
2018-07-13T19:51:47.029Z,74.19
2018-07-13T19:54:51.264Z,74.39
2018-07-13T19:57:55.465Z,74.53
2018-07-13T20:00:59.648Z,74.31
2018-07-13T20:04:03.863Z,74.23
2018-07-13T20:07:08.121Z,73.87
2018-07-13T20:10:12.346Z,74.98
2018-07-13T20:13:16.557Z,74.66
2018-07-13T20:16:20.781Z,75.14
2018-07-13T20:19:25.016Z,75.20
2018-07-13T20:22:29.237Z,74.87
2018-07-13T20:25:33.441Z,75.61
2018-07-13T20:28:37.639Z,75.31
2018-07-13T20:31:41.869Z,75.61
2018-07-13T20:34:46.095Z,74.86
2018-07-13T20:37:50.298Z,75.71
2018-07-13T20:40:54.570Z,75.21
2018-07-13T20:43:58.792Z,75.35
2018-07-13T20:47:03.859Z,74.65
2018-07-13T20:50:08.077Z,74.54
2018-07-13T20:53:12.316Z,74.98
2018-07-13T20:56:16.525Z,75.10
2018-07-13T20:59:20.753Z,75.25
2018-07-13T21:02:24.930Z,74.14
2018-07-13T21:05:29.158Z,74.65
2018-07-13T21:08:33.373Z,74.69
2018-07-13T21:11:37.589Z,74.92
2018-07-13T21:14:41.776Z,74.66
2018-07-13T21:17:45.988Z,74.63
2018-07-13T21:20:50.268Z,74.19
2018-07-13T21:23:54.412Z,74.23
2018-07-13T21:26:58.642Z,73.75
2018-07-13T21:30:03.870Z,74.57
2018-07-13T21:33:07.884Z,74.67
2018-07-13T21:36:12.062Z,75.02
2018-07-13T21:39:16.268Z,75.46
2018-07-13T21:42:20.452Z,75.57
2018-07-13T21:45:24.738Z,75.57
2018-07-13T21:48:28.888Z,75.54
2018-07-13T21:51:33.114Z,75.05
2018-07-13T21:54:37.322Z,75.82
2018-07-13T21:57:41.542Z,74.90
2018-07-13T22:00:45.827Z,74.75
2018-07-13T22:03:50.037Z,74.49
2018-07-13T22:06:54.246Z,73.84
2018-07-13T22:09:58.448Z,73.98
2018-07-13T22:13:02.642Z,74.13
2018-07-13T22:16:06.993Z,73.84
2018-07-13T22:19:11.136Z,73.51
2018-07-13T22:22:15.382Z,73.92
2018-07-13T22:25:19.585Z,74.41
2018-07-13T22:28:23.604Z,72.82
2018-07-13T22:31:27.817Z,72.78
2018-07-13T22:34:32.029Z,73.56
2018-07-13T22:37:36.232Z,73.30
2018-07-13T22:40:40.435Z,73.93
2018-07-13T22:43:44.620Z,73.04
2018-07-13T22:46:48.833Z,74.13
2018-07-13T22:49:53.028Z,74.30
2018-07-13T22:52:57.247Z,74.30
2018-07-13T22:56:01.445Z,74.23
2018-07-13T22:59:05.672Z,74.59
2018-07-13T23:02:09.877Z,74.10
2018-07-13T23:05:14.086Z,75.05
2018-07-13T23:08:18.325Z,73.30
2018-07-13T23:11:22.521Z,73.90
2018-07-13T23:14:26.774Z,74.26
2018-07-13T23:17:30.998Z,73.59
2018-07-13T23:20:35.796Z,73.74
2018-07-13T23:23:39.969Z,74.94
2018-07-13T23:26:44.180Z,74.17
2018-07-13T23:29:48.382Z,73.54
2018-07-13T23:32:52.600Z,73.99
2018-07-13T23:35:56.785Z,74.48
2018-07-13T23:39:00.994Z,74.86
2018-07-13T23:42:05.191Z,74.38
2018-07-13T23:45:09.398Z,74.51
2018-07-13T23:48:13.571Z,74.51
2018-07-13T23:51:17.813Z,74.72
2018-07-13T23:54:22.092Z,74.50
2018-07-13T23:57:26.303Z,74.81
